Pleasant Plain, Ohio
Current Conditions -  °F | °C
As of 5:54 PM on Saturday 20 Dec 2014 (Local Time) from KILN Reporting Station
Haze Haze  
Wind Chill: 29°   Ceiling: 1500
Heat Index: 29°   Visibility: 6mi
Dew Point: 23°   Wind: 3mph
Humidity: 78%   Direction: 360°N
Pressure: 30.27"   Gusts: NA
Location:  39.28°N, 84.11°W
Report Text: KILN 202254Z AUTO 36003KT 6SM HZ OVC015 M02/M05 A3027 RMK AO2 SLP278 T10171050
Loading
Personal Weather Stations






























Interactive Weather Map New forecast layout! Learn more

10-Day Weather Forecast

Advertisements
Track Severe Weather on mobile